^^
Meteo Knjazevac Station Historical Data
Daily Summary for July 28, 2021 Units:  Both    English   Metric
Daily Weekly Monthly Yearly Custom
  High: Low: Average:
Temperature: 31.1 °F /  -0.5 °C 30 °F /  -1.1 °C 30.6 °F /  -0.8 °C
Dew Point: 27.4 °F /  -2.6 °C 26.3 °F /  -3.2 °C 26.8 °F /  -2.9 °C
Humidity: 86% 84% 86%
Wind Speed: 7mph /  11.3km/h - 4mph /  6.4km/h
Wind Gust: 14mph /  22.5km/h - -
Wind- - West
Pressure: 29.96 in /  1014.4 hPa 29.94 in /  1013.8 hPa -
Precipitation: 0.00 in /  0 mm    
Historical Graphs
 
 
Tabular Data for July 28, 2021
Time Temperature Dew Point Pressure Wind Wind Speed Wind Gust Humidity Rainfall Rate (Hourly) solar Conditions
00:00 30.6 °F /  -0.8 °C 26.6 °F /  -3 °C 29.94in /  1013.8hPa West 5mph /  8km/h 7mph /  11.3km/h 85% 0.00in /  0mm 0 W/m2
00:10 30.6 °F /  -0.8 °C 26.6 °F /  -3 °C 29.94in /  1013.8hPa West 5mph /  8km/h 11mph /  17.7km/h 85% 0.00in /  0mm 0 W/m2
00:20 30.6 °F /  -0.8 °C 26.9 °F /  -2.8 °C 29.94in /  1013.8hPa West 5mph /  8km/h 10mph /  16.1km/h 86% 0.00in /  0mm 0 W/m2
00:30 30.4 °F /  -0.9 °C 26.7 °F /  -2.9 °C 29.95in /  1014.1hPa West 3mph /  4.8km/h 8mph /  12.9km/h 86% 0.00in /  0mm 0 W/m2
00:40 30.4 °F /  -0.9 °C 26.7 °F /  -2.9 °C 29.94in /  1013.8hPa West 1mph /  1.6km/h 12mph /  19.3km/h 86% 0.00in /  0mm 0 W/m2
00:50 30.4 °F /  -0.9 °C 26.7 °F /  -2.9 °C 29.95in /  1014.1hPa West 2mph /  3.2km/h 7mph /  11.3km/h 86% 0.00in /  0mm 0 W/m2
01:00 30.2 °F /  -1 °C 26.5 °F /  -3.1 °C 29.95in /  1014.1hPa NNW 6mph /  9.7km/h 10mph /  16.1km/h 86% 0.00in /  0mm 0 W/m2
01:10 30.6 °F /  -0.8 °C 26.6 °F /  -3 °C 29.95in /  1014.1hPa West 3mph /  4.8km/h 9mph /  14.5km/h 85% 0.00in /  0mm 0 W/m2
01:20 30.4 °F /  -0.9 °C 26.4 °F /  -3.1 °C 29.95in /  1014.1hPa West 6mph /  9.7km/h 8mph /  12.9km/h 85% 0.00in /  0mm 0 W/m2
01:30 30.6 °F /  -0.8 °C 26.6 °F /  -3 °C 29.95in /  1014.1hPa West 6mph /  9.7km/h 9mph /  14.5km/h 85% 0.00in /  0mm 0 W/m2
01:40 30.7 °F /  -0.7 °C 26.5 °F /  -3.1 °C 29.96in /  1014.4hPa West 3mph /  4.8km/h 11mph /  17.7km/h 84% 0.00in /  0mm 0 W/m2
01:50 30.7 °F /  -0.7 °C 26.8 °F /  -2.9 °C 29.96in /  1014.4hPa West 3mph /  4.8km/h 7mph /  11.3km/h 85% 0.00in /  0mm 0 W/m2
02:00 30.7 °F /  -0.7 °C 26.8 °F /  -2.9 °C 29.96in /  1014.4hPa West 3mph /  4.8km/h 6mph /  9.7km/h 85% 0.00in /  0mm 0 W/m2
02:10 30.6 °F /  -0.8 °C 26.6 °F /  -3 °C 29.95in /  1014.1hPa West 2mph /  3.2km/h 5mph /  8km/h 85% 0.00in /  0mm 0 W/m2
02:20 30.7 °F /  -0.7 °C 26.8 °F /  -2.9 °C 29.95in /  1014.1hPa WNW 2mph /  3.2km/h 8mph /  12.9km/h 85% 0.00in /  0mm 0 W/m2
02:30 30.6 °F /  -0.8 °C 26.6 °F /  -3 °C 29.95in /  1014.1hPa West 1mph /  1.6km/h 7mph /  11.3km/h 85% 0.00in /  0mm 0 W/m2
02:40 30.6 °F /  -0.8 °C 26.9 °F /  -2.8 °C 29.95in /  1014.1hPa WNW 1mph /  1.6km/h 7mph /  11.3km/h 86% 0.00in /  0mm 0 W/m2
02:50 30.7 °F /  -0.7 °C 27 °F /  -2.8 °C 29.95in /  1014.1hPa NW 6mph /  9.7km/h 8mph /  12.9km/h 86% 0.00in /  0mm 0 W/m2
03:00 30.7 °F /  -0.7 °C 27 °F /  -2.8 °C 29.95in /  1014.1hPa Calm   8mph /  12.9km/h 86% 0.00in /  0mm 0 W/m2
03:10 30.6 °F /  -0.8 °C 26.9 °F /  -2.8 °C 29.95in /  1014.1hPa Calm   5mph /  8km/h 86% 0.00in /  0mm 0 W/m2
03:20 30.6 °F /  -0.8 °C 26.9 °F /  -2.8 °C 29.95in /  1014.1hPa West 5mph /  8km/h 9mph /  14.5km/h 86% 0.00in /  0mm 0 W/m2
03:30 30.9 °F /  -0.6 °C 27.2 °F /  -2.7 °C 29.95in /  1014.1hPa WSW 5mph /  8km/h 10mph /  16.1km/h 86% 0.00in /  0mm 0 W/m2
03:40 31.1 °F /  -0.5 °C 27.4 °F /  -2.6 °C 29.95in /  1014.1hPa WSW 5mph /  8km/h 13mph /  20.9km/h 86% 0.00in /  0mm 0 W/m2
03:50 30.9 °F /  -0.6 °C 27.2 °F /  -2.7 °C 29.95in /  1014.1hPa WSW 6mph /  9.7km/h 14mph /  22.5km/h 86% 0.00in /  0mm 0 W/m2
04:00 30.9 °F /  -0.6 °C 27.2 °F /  -2.7 °C 29.95in /  1014.1hPa West 3mph /  4.8km/h 7mph /  11.3km/h 86% 0.00in /  0mm 0 W/m2
04:10 30.6 °F /  -0.8 °C 26.9 °F /  -2.8 °C 29.95in /  1014.1hPa WSW 5mph /  8km/h 8mph /  12.9km/h 86% 0.00in /  0mm 0 W/m2
04:20 30.4 °F /  -0.9 °C 26.7 °F /  -2.9 °C 29.95in /  1014.1hPa WSW 6mph /  9.7km/h 10mph /  16.1km/h 86% 0.00in /  0mm 0 W/m2
04:30 30.2 °F /  -1 °C 26.5 °F /  -3.1 °C 29.95in /  1014.1hPa WSW 7mph /  11.3km/h 12mph /  19.3km/h 86% 0.00in /  0mm 0 W/m2
04:40 30.2 °F /  -1 °C 26.5 °F /  -3.1 °C 29.95in /  1014.1hPa WSW 7mph /  11.3km/h 12mph /  19.3km/h 86% 0.00in /  0mm 0 W/m2
04:50 30 °F /  -1.1 °C 26.3 °F /  -3.2 °C 29.95in /  1014.1hPa WSW 7mph /  11.3km/h 12mph /  19.3km/h 86% 0.00in /  0mm 0 W/m2
Knjazevac, Serbia
Compliments of Weather Underground - 2 mb